Cavalier, ND (58220)

11:33 PM CDT on July 24, 2014 (GMT -0500)
Cavalier (K2C8) Elev 892 ft | 48.78 °N, 97.63 °W | Change Station

Current weather conditions updated 18 minutes ago

Overcast
Overcast
70 °F
Feels Like 70 °F
N
10
Wind Variable Wind from SSE

Tomorrow is forecast to be Warmer than today.

Today
High -- | Low -- °F
--% Chance of Precip.
Yesterday
High -- | Low -- °F
Precip. -- in
5:53 AM 9:19 PM
Waning Crescent, 3% visible
Pressure 29.80 in
Visibility 10.0 miles
Clouds Mostly Cloudy 4300 ft
Overcast 6000 ft
Dew Point 63 °F
Humidity 78%
Rainfall 0.00 in
Snow Depth Not available.
UV 0 out of 12
Pollen 7.40 out of 12
Air Quality Not available.
Flu Activity Not available.
METAR K2C8 250415Z AUTO 15009KT 10SM BKN043 OVC060 21/17 A2980 RMK AO2

More Conditions Fewer Conditions

Pressure 29.80 in
Visibility 10.0 miles
Clouds Mostly Cloudy 4300 ft
Overcast 6000 ft
Dew Point 63 °F
Humidity 78%
Rainfall 0.00 in
Snow Depth Not available.
UV 0 out of 12
Pollen 7.40 out of 12
Air Quality Not available.
Flu Activity Not available.
METAR K2C8 250415Z AUTO 15009KT 10SM BKN043 OVC060 21/17 A2980 RMK AO2

More Conditions Fewer Conditions

10-Day Weather Forecast

Almanac

Astronomy

Jul. 24, 2014 Rise Set
Actual Time 5:53 AM CDT 9:19 PM CDT
Civil Twilight 5:15 AM CDT 9:58 PM CDT
Nautical Twilight 4:23 AM CDT 10:49 PM CDT
Astronomical Twilight 3:14 AM CDT 11:57 PM CDT
Moon 4:05 AM CDT (7/24) 7:32 PM CDT (7/24)
Length of Visible Light 16h 43m
Length of Day
15h 25m
Tomorrow will be 2m 29s shorter.
Waning Crescent, 3% of the Moon is Illuminated
Jul 25
Waning Crescent
Jul 26
New
Aug 3
First Quarter
Aug 10
Full
Aug 17
Last Quarter

Today's Extremes

State Highs State Lows

Community

WunderPhotos

Upload Photos

1,737,244 photos uploaded!

Nearby

Snow Depth

Station Depth Elevation
No new snow has been reported.

Earthquake Activity

City Distance Mag. Time & Date
No recent earthquake activity has been reported nearby.
Minimum magnitude displayed is 2.5.

Coastal Water Temperatures

Place Temperature
No Stations Reporting

Nearby Weather Stations

Station Location Temp. Dew Point Humidity Wind Precip. Elev Updated Type
Hoople nd, Hoople, ND 67.9 °F 61 °F 78% SE  at  5.0 mph 0.00 in / hr 870 ft 11:32 PM CDT Normal

Show More Stations Show Fewer Stations